North Grosvenordale, Connecticut
Current Conditions -  °F | °C
As of 2:54 AM on Thursday 18 Dec 2014 (Local Time) from KORH Reporting Station
Overcast Overcast  
Wind Chill: 23°   Ceiling: 6500
Heat Index: 34°   Visibility: 10mi
Dew Point: 28°   Wind: 20mph
Humidity: 79%   Direction: 280°W
Pressure: 29.69"   Gusts: 29mph
Location:  41.99°N, 71.9°W
Report Text: KORH 180754Z AUTO 28017G25KT 10SM BKN065 OVC080 01/M02 A2969 RMK AO2 PK WND 28027/0711 SLP063 T00111022
Loading
Personal Weather Stations






























Interactive Weather Map New forecast layout! Learn more

10-Day Weather Forecast

Advertisements
Track Severe Weather on mobile